createdAt,value
2023-02-06T00:00:48.644Z,-3.25
2023-02-06T00:03:15.221Z,-3.30
2023-02-06T00:05:41.657Z,-3.35
2023-02-06T00:08:08.160Z,-3.31
2023-02-06T00:10:34.885Z,-3.24
2023-02-06T00:13:01.329Z,-3.24
2023-02-06T00:15:27.744Z,-3.39
2023-02-06T00:17:54.214Z,-3.33
2023-02-06T00:20:20.741Z,-3.31
2023-02-06T00:22:47.147Z,-3.33
2023-02-06T00:25:13.549Z,-3.29
2023-02-06T00:27:39.936Z,-3.26
2023-02-06T00:30:06.781Z,-3.22
2023-02-06T00:32:34.677Z,-3.31
2023-02-06T00:35:01.262Z,-3.28
2023-02-06T00:37:27.732Z,-3.26
2023-02-06T00:39:54.116Z,-3.26
2023-02-06T00:42:20.685Z,-3.33
2023-02-06T00:44:47.069Z,-3.38
2023-02-06T00:47:15.053Z,-3.37
2023-02-06T00:49:41.472Z,-3.36
2023-02-06T00:52:07.876Z,-3.28
2023-02-06T00:54:34.305Z,-3.30
2023-02-06T00:57:00.713Z,-3.22
2023-02-06T00:59:27.096Z,-3.21
2023-02-06T01:01:53.557Z,-3.22
2023-02-06T01:04:20.021Z,-3.26
2023-02-06T01:06:46.411Z,-3.27
2023-02-06T01:09:12.811Z,-3.26
2023-02-06T01:11:39.202Z,-3.27
2023-02-06T01:14:05.665Z,-3.30
2023-02-06T01:16:32.054Z,-3.33
2023-02-06T01:18:58.507Z,-3.33
2023-02-06T01:21:25.684Z,-3.39
2023-02-06T01:23:54.369Z,-3.30
2023-02-06T01:26:24.104Z,-3.33
2023-02-06T01:28:50.971Z,-3.24
2023-02-06T01:31:26.000Z,-3.22
2023-02-06T01:33:52.550Z,-3.23
2023-02-06T01:36:20.110Z,-3.30
2023-02-06T01:38:47.898Z,-3.27
2023-02-06T01:41:16.113Z,-3.28
2023-02-06T01:43:45.643Z,-3.26
2023-02-06T01:46:12.200Z,-3.29
2023-02-06T01:48:42.314Z,-3.24
2023-02-06T01:51:14.585Z,-3.31
2023-02-06T01:53:44.608Z,-3.30
2023-02-06T01:56:13.304Z,-3.27
2023-02-06T01:58:44.858Z,-3.25
2023-02-06T02:01:11.374Z,-3.37
2023-02-06T02:03:42.548Z,-3.42
2023-02-06T02:06:13.420Z,-3.42
2023-02-06T02:08:42.864Z,-3.38
2023-02-06T02:11:16.074Z,-3.37
2023-02-06T02:13:42.791Z,-3.43
2023-02-06T02:16:22.862Z,-3.34
2023-02-06T02:19:27.209Z,-3.46
2023-02-06T02:22:41.105Z,-3.39
2023-02-06T02:25:19.580Z,-3.36
2023-02-06T02:28:26.883Z,-3.33
2023-02-06T02:31:38.884Z,-3.41
2023-02-06T02:34:39.257Z,-3.39
2023-02-06T02:37:15.922Z,-3.22
2023-02-06T02:39:54.898Z,-3.07
2023-02-06T02:42:30.515Z,-2.90
2023-02-06T02:45:09.568Z,-3.05
2023-02-06T02:47:45.227Z,-3.15
2023-02-06T03:08:16.668Z,-2.62
2023-02-06T03:10:58.862Z,-2.65
2023-02-06T03:13:48.853Z,-2.66
2023-02-06T03:16:29.749Z,-2.71
2023-02-06T03:19:19.047Z,-2.62
2023-02-06T03:21:47.303Z,-2.55
2023-02-06T03:24:18.141Z,-2.44
2023-02-06T03:26:48.410Z,-2.37
2023-02-06T03:29:16.839Z,-2.39
2023-02-06T03:31:54.097Z,-2.39
2023-02-06T03:34:29.102Z,-2.28
2023-02-06T03:36:55.661Z,-2.23
2023-02-06T03:39:22.956Z,-2.27
2023-02-06T03:41:49.944Z,-2.26
2023-02-06T03:44:22.330Z,-2.19
2023-02-06T03:46:52.336Z,-2.14
2023-02-06T03:49:20.765Z,-2.18
2023-02-06T03:52:13.105Z,-2.10
2023-02-06T03:54:45.403Z,-2.11
2023-02-06T03:57:14.165Z,-2.12
2023-02-06T03:59:40.756Z,-2.04
2023-02-06T04:02:07.926Z,-2.03
2023-02-06T04:04:38.394Z,-2.02
2023-02-06T04:07:12.849Z,-1.93
2023-02-06T04:09:40.330Z,-1.87
2023-02-06T04:12:06.868Z,-1.82
2023-02-06T04:14:33.393Z,-1.73
2023-02-06T04:16:59.813Z,-1.77
2023-02-06T04:19:26.201Z,-1.64
2023-02-06T04:21:52.606Z,-1.66
2023-02-06T04:24:18.997Z,-1.73
2023-02-06T04:26:45.443Z,-1.72
2023-02-06T04:29:12.775Z,-1.64
2023-02-06T04:31:40.182Z,-1.67
2023-02-06T04:34:06.648Z,-1.67
2023-02-06T04:36:33.438Z,-1.64
2023-02-06T04:38:59.963Z,-1.59
2023-02-06T04:41:26.381Z,-1.65
2023-02-06T04:43:52.780Z,-1.63
2023-02-06T04:46:19.264Z,-1.57
2023-02-06T04:48:45.700Z,-1.61
2023-02-06T04:51:12.089Z,-1.60
2023-02-06T04:53:38.495Z,-1.55
2023-02-06T04:56:09.788Z,-1.49
2023-02-06T04:58:36.716Z,-1.53
2023-02-06T05:01:03.133Z,-1.54
2023-02-06T05:03:30.378Z,-1.51
2023-02-06T05:05:59.730Z,-1.45
2023-02-06T05:08:26.481Z,-1.46
2023-02-06T05:10:52.905Z,-1.46
2023-02-06T05:13:19.804Z,-1.48
2023-02-06T05:15:46.423Z,-1.43
2023-02-06T05:18:12.988Z,-1.39
2023-02-06T05:20:39.412Z,-1.33
2023-02-06T05:23:05.858Z,-1.21
2023-02-06T05:25:32.394Z,-1.28
2023-02-06T05:27:58.846Z,-1.32
2023-02-06T05:30:25.265Z,-1.32
2023-02-06T05:32:51.714Z,-1.25
2023-02-06T05:35:18.151Z,-1.21
2023-02-06T05:37:44.692Z,-1.25
2023-02-06T05:40:11.622Z,-1.27
2023-02-06T05:42:38.028Z,-1.23
2023-02-06T05:45:04.632Z,-1.22
2023-02-06T05:47:31.066Z,-1.20
2023-02-06T05:49:57.514Z,-1.18
2023-02-06T05:52:23.958Z,-1.15
2023-02-06T05:54:50.392Z,-1.18
2023-02-06T05:57:16.859Z,-1.14
2023-02-06T05:59:43.261Z,-1.13
2023-02-06T06:02:09.720Z,-1.09
2023-02-06T06:04:36.142Z,-1.06
2023-02-06T06:07:03.095Z,-1.03
2023-02-06T06:09:29.522Z,-1.07
2023-02-06T06:11:55.945Z,-1.04
2023-02-06T06:14:22.364Z,-1.01
2023-02-06T06:16:48.888Z,-0.99
2023-02-06T06:19:15.464Z,-1.03
2023-02-06T06:21:41.856Z,-0.99
2023-02-06T06:24:08.248Z,-0.91
2023-02-06T06:26:34.640Z,-0.94
2023-02-06T06:29:01.044Z,-0.89
2023-02-06T06:31:27.471Z,-0.92
2023-02-06T06:33:54.225Z,-0.94
2023-02-06T06:36:20.711Z,-0.93
2023-02-06T06:38:47.127Z,-0.95
2023-02-06T06:41:13.614Z,-0.96
2023-02-06T06:43:40.154Z,-0.92
2023-02-06T06:46:06.630Z,-1.02
2023-02-06T06:48:33.146Z,-0.92
2023-02-06T06:50:59.565Z,-0.87
2023-02-06T06:53:25.960Z,-0.84
2023-02-06T06:55:52.355Z,-0.83
2023-02-06T06:58:18.757Z,-0.88
2023-02-06T07:00:45.586Z,-0.90
2023-02-06T07:03:12.423Z,-0.90
2023-02-06T07:05:38.914Z,-0.72
2023-02-06T07:08:05.438Z,-0.76
2023-02-06T07:10:31.841Z,-0.73
2023-02-06T07:12:58.261Z,-0.73
2023-02-06T07:15:24.682Z,-0.62
2023-02-06T07:17:51.109Z,-0.67
2023-02-06T07:20:17.578Z,-0.63
2023-02-06T07:22:44.018Z,-0.61
2023-02-06T07:25:21.056Z,-0.61
2023-02-06T07:27:47.656Z,-0.63
2023-02-06T07:30:14.460Z,-0.59
2023-02-06T07:32:40.872Z,-0.54
2023-02-06T07:35:07.608Z,-0.46
2023-02-06T07:37:33.999Z,-0.36
2023-02-06T07:40:00.382Z,-0.23
2023-02-06T07:42:26.815Z,-0.19
2023-02-06T07:44:57.946Z,-0.14
2023-02-06T07:47:24.332Z,-0.26
2023-02-06T07:49:50.741Z,-0.29
2023-02-06T07:52:17.184Z,-0.26
2023-02-06T07:54:43.574Z,-0.19
2023-02-06T07:57:09.976Z,-0.08
2023-02-06T07:59:36.389Z,-0.01
2023-02-06T08:02:02.910Z,-0.03
2023-02-06T08:04:35.066Z,-0.11
2023-02-06T08:07:02.766Z,-0.17
2023-02-06T08:09:29.475Z,-0.20
2023-02-06T08:11:55.885Z,0.01
2023-02-06T08:14:22.391Z,-0.04
2023-02-06T08:16:49.795Z,-0.10
2023-02-06T08:19:16.274Z,-0.10
2023-02-06T08:21:42.682Z,-0.11
2023-02-06T08:24:11.849Z,-0.08
2023-02-06T08:26:38.878Z,-0.09
2023-02-06T08:29:08.010Z,-0.12
2023-02-06T08:31:37.867Z,-0.10
2023-02-06T08:34:05.630Z,-0.01
2023-02-06T08:36:32.993Z,-0.03
2023-02-06T08:39:00.815Z,-0.03
2023-02-06T08:41:30.716Z,0.04
2023-02-06T08:43:59.495Z,0.01
2023-02-06T08:46:28.782Z,0.04
2023-02-06T08:48:56.743Z,-0.06
2023-02-06T08:51:23.457Z,-0.08
2023-02-06T08:53:49.882Z,-0.09
2023-02-06T08:56:16.284Z,-0.05
2023-02-06T08:58:42.754Z,-0.07
2023-02-06T09:01:14.341Z,0.05
2023-02-06T09:03:41.802Z,0.16
2023-02-06T09:06:10.543Z,0.17
2023-02-06T09:08:38.322Z,0.13
2023-02-06T09:11:10.420Z,0.15
2023-02-06T09:13:37.830Z,0.20
2023-02-06T09:16:05.616Z,0.33
2023-02-06T09:18:32.140Z,0.31
2023-02-06T09:21:04.876Z,0.43
2023-02-06T09:23:31.325Z,0.48
2023-02-06T09:25:57.800Z,0.47
2023-02-06T09:28:24.340Z,0.33
2023-02-06T09:30:50.936Z,0.52
2023-02-06T09:33:17.393Z,0.49
2023-02-06T09:35:43.891Z,0.49
2023-02-06T09:38:10.282Z,0.43
2023-02-06T09:40:37.149Z,0.53
2023-02-06T09:43:03.908Z,0.63
2023-02-06T09:45:31.858Z,0.62
2023-02-06T09:48:16.200Z,0.55
2023-02-06T09:50:55.653Z,0.72
2023-02-06T09:53:34.146Z,0.74
2023-02-06T09:56:19.616Z,0.62
2023-02-06T09:58:57.354Z,0.64
2023-02-06T10:01:38.747Z,0.56
2023-02-06T10:04:29.847Z,0.50
2023-02-06T10:07:16.993Z,0.55
2023-02-06T10:10:06.631Z,0.59
2023-02-06T10:12:42.476Z,0.51
2023-02-06T10:15:17.360Z,0.56
2023-02-06T10:17:52.147Z,0.50
2023-02-06T10:20:26.277Z,0.59
2023-02-06T10:23:10.501Z,0.54
2023-02-06T10:25:42.344Z,0.46
2023-02-06T10:28:17.623Z,0.53
2023-02-06T10:30:59.367Z,0.60
2023-02-06T10:33:36.104Z,0.59
2023-02-06T10:36:25.563Z,0.55
2023-02-06T10:39:13.627Z,0.67
2023-02-06T10:41:55.842Z,0.57
2023-02-06T10:44:35.942Z,0.69
2023-02-06T10:47:04.596Z,0.68
2023-02-06T10:49:39.138Z,0.63
2023-02-06T10:52:24.059Z,0.65
2023-02-06T10:54:57.494Z,0.72
2023-02-06T10:57:28.481Z,0.60
2023-02-06T10:59:59.946Z,0.58
2023-02-06T11:03:06.221Z,0.56
2023-02-06T11:05:33.858Z,0.60
2023-02-06T11:08:25.228Z,0.68
2023-02-06T11:10:51.926Z,0.73
2023-02-06T11:13:29.676Z,0.73
2023-02-06T11:16:01.326Z,0.68
2023-02-06T11:18:59.879Z,0.62
2023-02-06T11:21:41.493Z,0.55
2023-02-06T11:24:14.076Z,0.63
2023-02-06T11:26:42.786Z,0.71
2023-02-06T11:29:16.533Z,0.70
2023-02-06T11:31:46.331Z,0.52
2023-02-06T11:34:28.109Z,0.52
2023-02-06T11:36:57.650Z,0.54
2023-02-06T11:39:30.577Z,0.65
2023-02-06T11:42:05.473Z,0.65
2023-02-06T11:44:40.796Z,0.70
2023-02-06T11:47:35.513Z,0.64
2023-02-06T11:50:28.381Z,0.72
2023-02-06T11:53:00.241Z,0.65
2023-02-06T11:55:30.636Z,0.67
2023-02-06T11:58:12.088Z,0.68
2023-02-06T12:00:40.746Z,0.69
2023-02-06T12:03:27.230Z,0.71
2023-02-06T12:05:55.287Z,0.72
2023-02-06T12:08:53.181Z,0.70
2023-02-06T12:11:35.390Z,0.74
2023-02-06T12:14:09.637Z,0.69
2023-02-06T12:16:39.757Z,0.72
2023-02-06T12:19:14.174Z,0.66
2023-02-06T12:21:45.228Z,0.62
2023-02-06T12:24:32.370Z,0.68
2023-02-06T12:27:04.042Z,0.66
2023-02-06T12:29:41.738Z,0.74
2023-02-06T12:32:22.834Z,0.68
2023-02-06T12:34:55.843Z,0.70
2023-02-06T12:37:39.730Z,0.71
2023-02-06T12:40:34.978Z,0.61
2023-02-06T12:43:06.641Z,0.61
2023-02-06T12:45:42.010Z,0.57
2023-02-06T12:48:17.553Z,0.65
2023-02-06T12:50:56.765Z,0.62
2023-02-06T12:53:35.236Z,0.58
2023-02-06T12:56:24.308Z,0.63
2023-02-06T12:59:06.477Z,0.65
2023-02-06T13:01:46.790Z,0.66
2023-02-06T13:04:18.108Z,0.69
2023-02-06T13:06:50.833Z,0.65
2023-02-06T13:09:28.805Z,0.69
2023-02-06T13:12:26.381Z,0.76
2023-02-06T13:14:56.402Z,0.78
2023-02-06T13:17:33.602Z,0.76
2023-02-06T13:20:09.909Z,0.85
2023-02-06T13:22:44.773Z,0.93
2023-02-06T13:25:26.249Z,0.83
2023-02-06T13:27:53.664Z,0.78
2023-02-06T13:30:29.019Z,0.73
2023-02-06T13:32:58.733Z,0.74
2023-02-06T13:35:30.155Z,0.80
2023-02-06T13:38:22.857Z,0.85
2023-02-06T13:41:15.167Z,0.97
2023-02-06T13:43:47.682Z,1.00
2023-02-06T13:46:23.500Z,0.89
2023-02-06T13:49:31.720Z,1.02
2023-02-06T13:52:18.531Z,0.99
2023-02-06T13:55:20.254Z,1.00
2023-02-06T13:58:18.880Z,1.02
2023-02-06T14:00:47.750Z,0.98
2023-02-06T14:03:29.510Z,1.03
2023-02-06T14:06:20.625Z,0.92
2023-02-06T14:09:06.021Z,0.96
2023-02-06T14:12:17.969Z,1.04
2023-02-06T14:15:19.324Z,1.00
2023-02-06T14:18:01.424Z,0.95
2023-02-06T14:21:02.390Z,0.96
2023-02-06T14:23:51.918Z,1.00
2023-02-06T14:26:46.845Z,0.95
2023-02-06T14:29:23.100Z,1.07
2023-02-06T14:32:26.920Z,1.15
2023-02-06T14:35:06.710Z,1.12
2023-02-06T14:38:05.776Z,1.13
2023-02-06T14:40:41.524Z,1.23
2023-02-06T14:43:15.151Z,1.13
2023-02-06T14:45:46.241Z,1.27
2023-02-06T14:48:56.798Z,1.11
2023-02-06T14:51:39.066Z,1.10
2023-02-06T14:54:26.383Z,1.06
2023-02-06T14:56:57.942Z,1.03
2023-02-06T14:59:25.064Z,1.02
2023-02-06T15:01:53.311Z,1.08
2023-02-06T15:04:23.455Z,1.15
2023-02-06T15:07:00.981Z,1.17
2023-02-06T15:09:30.629Z,1.16
2023-02-06T15:12:02.822Z,1.07
2023-02-06T15:14:32.596Z,1.09
2023-02-06T15:17:00.852Z,1.03
2023-02-06T15:19:30.134Z,0.98
2023-02-06T15:22:02.332Z,0.98
2023-02-06T15:24:51.330Z,0.93
2023-02-06T15:27:29.193Z,0.97
2023-02-06T15:29:56.804Z,0.97
2023-02-06T15:32:33.193Z,1.05
2023-02-06T15:35:01.022Z,1.07
2023-02-06T15:37:33.710Z,1.09
2023-02-06T15:40:06.817Z,1.08
2023-02-06T15:42:33.532Z,1.08
2023-02-06T15:45:00.612Z,1.17
2023-02-06T15:47:27.573Z,1.20
2023-02-06T15:49:54.243Z,1.19
2023-02-06T15:52:42.717Z,1.11
2023-02-06T15:55:27.462Z,1.05
2023-02-06T15:57:55.656Z,1.04
2023-02-06T16:00:27.470Z,1.07
2023-02-06T16:02:58.666Z,1.07
2023-02-06T16:05:37.268Z,1.11
2023-02-06T16:08:09.974Z,1.11
2023-02-06T16:10:38.528Z,1.07
2023-02-06T16:13:12.034Z,1.04
2023-02-06T16:15:40.144Z,1.11
2023-02-06T16:18:28.917Z,1.00
2023-02-06T16:21:17.976Z,0.87
2023-02-06T16:23:50.893Z,0.88
2023-02-06T16:26:19.011Z,0.89
2023-02-06T16:29:00.423Z,0.96
2023-02-06T16:31:29.575Z,1.08
2023-02-06T16:34:03.006Z,0.97
2023-02-06T16:36:32.042Z,0.87
2023-02-06T16:39:04.079Z,0.84
2023-02-06T16:41:33.722Z,0.83
2023-02-06T16:44:01.308Z,0.84
2023-02-06T16:46:28.869Z,0.76
2023-02-06T16:48:57.959Z,0.72
2023-02-06T16:51:27.214Z,0.70
2023-02-06T16:53:53.864Z,0.65
2023-02-06T16:56:21.529Z,0.59
2023-02-06T16:58:48.599Z,0.52
2023-02-06T17:01:25.497Z,0.58
2023-02-06T17:03:52.991Z,0.49
2023-02-06T17:06:28.864Z,0.40
2023-02-06T17:09:01.933Z,0.38
2023-02-06T17:11:28.385Z,0.34
2023-02-06T17:13:54.794Z,0.39
2023-02-06T17:16:23.567Z,0.38
2023-02-06T17:18:50.893Z,0.38
2023-02-06T17:21:20.271Z,0.25
2023-02-06T17:23:48.753Z,0.30
2023-02-06T17:26:18.049Z,0.21
2023-02-06T17:28:45.340Z,0.35
2023-02-06T17:31:12.553Z,0.22
2023-02-06T17:33:39.340Z,0.17
2023-02-06T17:36:07.988Z,0.11
2023-02-06T17:38:34.505Z,0.27
2023-02-06T17:41:00.963Z,0.35
2023-02-06T17:43:30.647Z,0.27
2023-02-06T17:45:57.092Z,0.05
2023-02-06T17:48:23.516Z,-0.07
2023-02-06T17:50:49.924Z,-0.13
2023-02-06T17:53:16.474Z,-0.14
2023-02-06T17:55:44.949Z,-0.20
2023-02-06T17:58:11.356Z,-0.21
2023-02-06T18:00:38.209Z,-0.22
2023-02-06T18:03:05.346Z,-0.33
2023-02-06T18:05:32.137Z,-0.38
2023-02-06T18:07:58.552Z,-0.44
2023-02-06T18:10:25.622Z,-0.54
2023-02-06T18:12:52.402Z,-0.62
2023-02-06T18:15:18.860Z,-0.57
2023-02-06T18:17:45.287Z,-0.52
2023-02-06T18:20:12.373Z,-0.53
2023-02-06T18:22:41.207Z,-0.58
2023-02-06T18:25:13.497Z,-0.54
2023-02-06T18:27:41.442Z,-0.53
2023-02-06T18:30:09.528Z,-0.58
2023-02-06T18:32:37.502Z,-0.58
2023-02-06T18:35:04.572Z,-0.64
2023-02-06T18:37:30.994Z,-0.66
2023-02-06T18:39:57.402Z,-0.74
2023-02-06T18:42:42.643Z,-0.79
2023-02-06T18:45:09.359Z,-0.79
2023-02-06T18:47:35.820Z,-0.83
2023-02-06T18:50:02.294Z,-0.84
2023-02-06T18:52:29.026Z,-0.90
2023-02-06T18:54:55.448Z,-0.95
2023-02-06T18:57:21.869Z,-0.95
2023-02-06T18:59:48.255Z,-0.95
2023-02-06T19:02:14.745Z,-0.97
2023-02-06T19:04:41.272Z,-1.04
2023-02-06T19:07:08.883Z,-1.05
2023-02-06T19:09:35.315Z,-1.03
2023-02-06T19:12:01.737Z,-1.11
2023-02-06T19:14:28.144Z,-1.19
2023-02-06T19:16:54.960Z,-1.31
2023-02-06T19:19:21.411Z,-1.34
2023-02-06T19:21:47.938Z,-1.40
2023-02-06T19:24:16.275Z,-1.48
2023-02-06T19:26:42.677Z,-1.50
2023-02-06T19:29:09.815Z,-1.59
2023-02-06T19:31:39.105Z,-1.59
2023-02-06T19:34:05.844Z,-1.59
2023-02-06T19:36:32.640Z,-1.66
2023-02-06T19:39:02.358Z,-1.58
2023-02-06T19:41:31.119Z,-1.63
2023-02-06T19:44:00.568Z,-1.73
2023-02-06T19:46:27.530Z,-1.81
2023-02-06T19:48:54.968Z,-1.85
2023-02-06T19:51:27.374Z,-1.87
2023-02-06T19:53:55.650Z,-1.93
2023-02-06T19:56:25.404Z,-1.94
2023-02-06T19:58:56.674Z,-2.05
2023-02-06T20:01:24.006Z,-2.05
2023-02-06T20:03:51.121Z,-2.07
2023-02-06T20:06:18.188Z,-2.09
2023-02-06T20:08:45.712Z,-2.13
2023-02-06T20:11:17.740Z,-2.05
2023-02-06T20:13:45.953Z,-2.15
2023-02-06T20:16:18.938Z,-2.26
2023-02-06T20:18:45.822Z,-2.31
2023-02-06T20:21:23.592Z,-2.33
2023-02-06T20:23:50.674Z,-2.21
2023-02-06T20:26:18.943Z,-2.30
2023-02-06T20:28:46.137Z,-2.41
2023-02-06T20:31:13.301Z,-2.44
2023-02-06T20:33:40.192Z,-2.50
2023-02-06T20:36:13.175Z,-2.49
2023-02-06T20:38:39.673Z,-2.50
2023-02-06T20:41:07.617Z,-2.55
2023-02-06T20:43:35.786Z,-2.62
2023-02-06T20:46:07.207Z,-2.55
2023-02-06T20:48:36.853Z,-2.58
2023-02-06T20:51:05.585Z,-2.65
2023-02-06T20:53:32.306Z,-2.69
2023-02-06T20:55:58.973Z,-2.78
2023-02-06T20:58:25.877Z,-2.75
2023-02-06T21:00:52.956Z,-2.75
2023-02-06T21:03:19.433Z,-2.79
2023-02-06T21:05:55.276Z,-2.80
2023-02-06T21:08:21.693Z,-2.75
2023-02-06T21:10:52.524Z,-2.89
2023-02-06T21:13:19.410Z,-3.02
2023-02-06T21:15:51.850Z,-3.09
2023-02-06T21:18:18.360Z,-3.22
2023-02-06T21:20:44.799Z,-3.26
2023-02-06T21:23:11.376Z,-3.41
2023-02-06T21:25:38.185Z,-3.43
2023-02-06T21:28:05.274Z,-3.51
2023-02-06T21:30:32.285Z,-3.51
2023-02-06T21:32:58.685Z,-3.45
2023-02-06T21:35:28.594Z,-3.46
2023-02-06T21:37:54.996Z,-3.43
2023-02-06T21:40:21.496Z,-3.42
2023-02-06T21:42:47.980Z,-3.39
2023-02-06T21:45:14.542Z,-3.43
2023-02-06T21:47:41.074Z,-3.42
2023-02-06T21:50:08.042Z,-3.44
2023-02-06T21:52:35.322Z,-3.51
2023-02-06T21:55:01.848Z,-3.53
2023-02-06T21:57:28.335Z,-3.54
2023-02-06T21:59:54.746Z,-3.54
2023-02-06T22:02:21.265Z,-3.55
2023-02-06T22:04:47.666Z,-3.59
2023-02-06T22:07:14.076Z,-3.62
2023-02-06T22:09:40.485Z,-3.64
2023-02-06T22:12:07.383Z,-3.70
2023-02-06T22:14:35.104Z,-3.66
2023-02-06T22:17:01.892Z,-3.64
2023-02-06T22:19:28.329Z,-3.65
2023-02-06T22:21:54.725Z,-3.75
2023-02-06T22:24:21.332Z,-3.82
2023-02-06T22:26:47.744Z,-3.81
2023-02-06T22:29:15.904Z,-3.72
2023-02-06T22:31:43.683Z,-3.71
2023-02-06T22:34:16.205Z,-3.72
2023-02-06T22:36:44.462Z,-3.71
2023-02-06T22:39:14.983Z,-3.65
2023-02-06T22:41:44.158Z,-3.78
2023-02-06T22:44:16.403Z,-3.75
2023-02-06T22:46:45.576Z,-3.90
2023-02-06T22:49:12.425Z,-3.95
2023-02-06T22:51:39.838Z,-3.96
2023-02-06T22:54:09.319Z,-3.98
2023-02-06T22:56:37.373Z,-3.97
2023-02-06T22:59:10.912Z,-4.01
2023-02-06T23:01:42.939Z,-4.05
2023-02-06T23:04:21.702Z,-4.12
2023-02-06T23:06:48.916Z,-4.13
2023-02-06T23:09:18.901Z,-4.14
2023-02-06T23:11:45.946Z,-4.14
2023-02-06T23:14:13.838Z,-4.04
2023-02-06T23:16:41.254Z,-4.14
2023-02-06T23:19:08.493Z,-4.12
2023-02-06T23:21:37.067Z,-4.10
2023-02-06T23:24:05.713Z,-4.14
2023-02-06T23:26:33.324Z,-4.14
2023-02-06T23:29:01.916Z,-4.19
2023-02-06T23:31:28.673Z,-4.18
2023-02-06T23:33:55.873Z,-4.14
2023-02-06T23:36:24.415Z,-4.13
2023-02-06T23:38:51.839Z,-4.21
2023-02-06T23:41:20.946Z,-4.25
2023-02-06T23:43:52.021Z,-4.34
2023-02-06T23:46:19.907Z,-4.39
2023-02-06T23:48:48.467Z,-4.45
2023-02-06T23:51:15.358Z,-4.54
2023-02-06T23:53:42.152Z,-4.55
2023-02-06T23:56:22.966Z,-4.57
2023-02-06T23:58:49.929Z,-4.55
